sensor_id;sensor_type;location;lat;lon;timestamp;P1;durP1;ratioP1;P2;durP2;ratioP2
78555;SDS011;67851;51.354;7.744;2023-03-23T00:01:05;10.63;;;2.75;;
78555;SDS011;67851;51.354;7.744;2023-03-23T00:03:32;4.32;;;3.08;;
78555;SDS011;67851;51.354;7.744;2023-03-23T00:05:58;6.35;;;3.20;;
78555;SDS011;67851;51.354;7.744;2023-03-23T00:08:32;3.80;;;2.53;;
78555;SDS011;67851;51.354;7.744;2023-03-23T00:10:58;5.45;;;3.03;;
78555;SDS011;67851;51.354;7.744;2023-03-23T00:13:26;12.63;;;3.67;;
78555;SDS011;67851;51.354;7.744;2023-03-23T00:15:53;8.65;;;4.07;;
78555;SDS011;67851;51.354;7.744;2023-03-23T00:18:19;5.57;;;3.45;;
78555;SDS011;67851;51.354;7.744;2023-03-23T00:20:55;5.30;;;2.95;;
78555;SDS011;67851;51.354;7.744;2023-03-23T00:23:22;6.68;;;3.30;;
78555;SDS011;67851;51.354;7.744;2023-03-23T00:25:51;8.55;;;4.05;;
78555;SDS011;67851;51.354;7.744;2023-03-23T00:28:18;5.45;;;3.47;;
78555;SDS011;67851;51.354;7.744;2023-03-23T00:30:56;9.30;;;4.57;;
78555;SDS011;67851;51.354;7.744;2023-03-23T00:33:23;6.70;;;3.85;;
78555;SDS011;67851;51.354;7.744;2023-03-23T00:35:51;8.02;;;3.53;;
78555;SDS011;67851;51.354;7.744;2023-03-23T00:38:18;7.80;;;3.83;;
78555;SDS011;67851;51.354;7.744;2023-03-23T00:40:45;7.68;;;3.80;;
78555;SDS011;67851;51.354;7.744;2023-03-23T00:43:15;5.65;;;3.80;;
78555;SDS011;67851;51.354;7.744;2023-03-23T00:45:41;9.75;;;3.88;;
78555;SDS011;67851;51.354;7.744;2023-03-23T00:48:10;6.70;;;3.33;;
78555;SDS011;67851;51.354;7.744;2023-03-23T00:50:38;5.75;;;3.20;;
78555;SDS011;67851;51.354;7.744;2023-03-23T00:53:04;6.55;;;3.92;;
78555;SDS011;67851;51.354;7.744;2023-03-23T00:55:30;7.25;;;2.97;;
78555;SDS011;67851;51.354;7.744;2023-03-23T00:57:56;8.55;;;3.63;;
78555;SDS011;67851;51.354;7.744;2023-03-23T01:00:22;7.75;;;3.22;;
78555;SDS011;67851;51.354;7.744;2023-03-23T01:02:48;7.38;;;3.15;;
78555;SDS011;67851;51.354;7.744;2023-03-23T01:05:16;8.27;;;3.70;;
78555;SDS011;67851;51.354;7.744;2023-03-23T01:07:43;6.32;;;3.40;;
78555;SDS011;67851;51.354;7.744;2023-03-23T01:10:10;5.50;;;3.17;;
78555;SDS011;67851;51.354;7.744;2023-03-23T01:12:38;5.90;;;2.70;;
78555;SDS011;67851;51.354;7.744;2023-03-23T01:15:05;3.63;;;2.65;;
78555;SDS011;67851;51.354;7.744;2023-03-23T01:17:31;4.80;;;2.80;;
78555;SDS011;67851;51.354;7.744;2023-03-23T01:19:56;4.25;;;2.85;;
78555;SDS011;67851;51.354;7.744;2023-03-23T01:22:22;6.30;;;2.78;;
78555;SDS011;67851;51.354;7.744;2023-03-23T01:24:48;5.55;;;2.80;;
78555;SDS011;67851;51.354;7.744;2023-03-23T01:27:14;5.32;;;2.67;;
78555;SDS011;67851;51.354;7.744;2023-03-23T01:29:40;3.55;;;2.22;;
78555;SDS011;67851;51.354;7.744;2023-03-23T01:32:05;5.07;;;2.65;;
78555;SDS011;67851;51.354;7.744;2023-03-23T01:34:31;5.15;;;2.42;;
78555;SDS011;67851;51.354;7.744;2023-03-23T01:36:57;3.42;;;2.40;;
78555;SDS011;67851;51.354;7.744;2023-03-23T01:39:23;4.28;;;2.20;;
78555;SDS011;67851;51.354;7.744;2023-03-23T01:41:48;4.63;;;2.42;;
78555;SDS011;67851;51.354;7.744;2023-03-23T01:46:55;6.50;;;2.47;;
78555;SDS011;67851;51.354;7.744;2023-03-23T01:49:22;7.18;;;2.95;;
78555;SDS011;67851;51.354;7.744;2023-03-23T01:51:53;6.85;;;2.70;;
78555;SDS011;67851;51.354;7.744;2023-03-23T01:54:21;6.47;;;2.92;;
78555;SDS011;67851;51.354;7.744;2023-03-23T01:56:55;5.60;;;3.70;;
78555;SDS011;67851;51.354;7.744;2023-03-23T01:59:25;8.63;;;3.00;;
78555;SDS011;67851;51.354;7.744;2023-03-23T02:02:12;5.30;;;2.38;;
78555;SDS011;67851;51.354;7.744;2023-03-23T02:04:38;4.82;;;2.35;;
78555;SDS011;67851;51.354;7.744;2023-03-23T02:07:04;6.57;;;3.20;;
78555;SDS011;67851;51.354;7.744;2023-03-23T02:09:30;4.30;;;2.67;;
78555;SDS011;67851;51.354;7.744;2023-03-23T02:11:56;6.57;;;3.22;;
78555;SDS011;67851;51.354;7.744;2023-03-23T02:14:23;5.20;;;3.13;;
78555;SDS011;67851;51.354;7.744;2023-03-23T02:17:13;6.40;;;3.53;;
78555;SDS011;67851;51.354;7.744;2023-03-23T02:33:08;6.40;;;3.10;;
78555;SDS011;67851;51.354;7.744;2023-03-23T02:35:56;8.80;;;4.30;;
78555;SDS011;67851;51.354;7.744;2023-03-23T02:38:40;5.95;;;4.25;;
78555;SDS011;67851;51.354;7.744;2023-03-23T02:41:18;6.47;;;3.70;;
78555;SDS011;67851;51.354;7.744;2023-03-23T02:43:46;7.30;;;3.15;;
78555;SDS011;67851;51.354;7.744;2023-03-23T02:46:12;6.28;;;3.42;;
78555;SDS011;67851;51.354;7.744;2023-03-23T02:48:39;5.60;;;3.72;;
78555;SDS011;67851;51.354;7.744;2023-03-23T02:51:06;8.95;;;3.70;;
78555;SDS011;67851;51.354;7.744;2023-03-23T02:53:34;7.65;;;4.53;;
78555;SDS011;67851;51.354;7.744;2023-03-23T02:56:02;10.35;;;4.95;;
78555;SDS011;67851;51.354;7.744;2023-03-23T02:58:30;5.82;;;3.92;;
78555;SDS011;67851;51.354;7.744;2023-03-23T03:00:56;7.07;;;3.50;;
78555;SDS011;67851;51.354;7.744;2023-03-23T03:03:26;7.63;;;4.53;;
78555;SDS011;67851;51.354;7.744;2023-03-23T03:06:16;9.00;;;4.38;;
78555;SDS011;67851;51.354;7.744;2023-03-23T03:08:55;8.15;;;4.03;;
78555;SDS011;67851;51.354;7.744;2023-03-23T03:11:28;6.22;;;3.90;;
78555;SDS011;67851;51.354;7.744;2023-03-23T03:13:59;4.88;;;3.40;;
78555;SDS011;67851;51.354;7.744;2023-03-23T03:16:56;11.35;;;3.65;;
78555;SDS011;67851;51.354;7.744;2023-03-23T03:19:45;9.05;;;4.53;;
78555;SDS011;67851;51.354;7.744;2023-03-23T03:22:12;9.23;;;4.40;;
78555;SDS011;67851;51.354;7.744;2023-03-23T03:24:39;10.73;;;4.00;;
78555;SDS011;67851;51.354;7.744;2023-03-23T03:27:10;7.97;;;3.90;;
78555;SDS011;67851;51.354;7.744;2023-03-23T03:29:47;7.53;;;4.50;;
78555;SDS011;67851;51.354;7.744;2023-03-23T03:32:17;7.38;;;4.20;;
78555;SDS011;67851;51.354;7.744;2023-03-23T03:34:48;4.70;;;3.30;;
78555;SDS011;67851;51.354;7.744;2023-03-23T03:37:16;7.72;;;3.97;;
78555;SDS011;67851;51.354;7.744;2023-03-23T03:39:43;4.90;;;3.50;;
78555;SDS011;67851;51.354;7.744;2023-03-23T03:42:09;4.72;;;3.17;;
78555;SDS011;67851;51.354;7.744;2023-03-23T03:44:35;6.75;;;3.33;;
78555;SDS011;67851;51.354;7.744;2023-03-23T03:47:01;6.63;;;3.10;;
78555;SDS011;67851;51.354;7.744;2023-03-23T03:49:27;6.45;;;3.05;;
78555;SDS011;67851;51.354;7.744;2023-03-23T03:52:01;7.72;;;3.40;;
78555;SDS011;67851;51.354;7.744;2023-03-23T03:54:37;4.75;;;2.72;;
78555;SDS011;67851;51.354;7.744;2023-03-23T03:57:05;6.43;;;3.10;;
78555;SDS011;67851;51.354;7.744;2023-03-23T04:00:05;6.32;;;3.25;;
78555;SDS011;67851;51.354;7.744;2023-03-23T04:02:44;7.43;;;3.30;;
78555;SDS011;67851;51.354;7.744;2023-03-23T04:05:15;6.70;;;3.67;;
78555;SDS011;67851;51.354;7.744;2023-03-23T04:07:43;7.60;;;3.60;;
78555;SDS011;67851;51.354;7.744;2023-03-23T04:10:11;5.88;;;2.92;;
78555;SDS011;67851;51.354;7.744;2023-03-23T04:12:40;4.43;;;3.08;;
78555;SDS011;67851;51.354;7.744;2023-03-23T04:15:24;6.07;;;2.40;;
78555;SDS011;67851;51.354;7.744;2023-03-23T04:17:50;3.85;;;2.40;;
78555;SDS011;67851;51.354;7.744;2023-03-23T04:20:16;3.67;;;2.35;;
78555;SDS011;67851;51.354;7.744;2023-03-23T04:22:49;4.63;;;2.67;;
78555;SDS011;67851;51.354;7.744;2023-03-23T04:25:18;5.00;;;2.90;;
78555;SDS011;67851;51.354;7.744;2023-03-23T04:27:50;3.85;;;2.80;;
78555;SDS011;67851;51.354;7.744;2023-03-23T04:30:20;4.45;;;2.30;;
78555;SDS011;67851;51.354;7.744;2023-03-23T04:33:07;5.00;;;2.83;;
78555;SDS011;67851;51.354;7.744;2023-03-23T04:35:33;4.97;;;2.80;;
78555;SDS011;67851;51.354;7.744;2023-03-23T04:38:12;4.15;;;2.63;;
78555;SDS011;67851;51.354;7.744;2023-03-23T04:40:41;3.20;;;2.35;;
78555;SDS011;67851;51.354;7.744;2023-03-23T04:43:20;4.25;;;2.47;;
78555;SDS011;67851;51.354;7.744;2023-03-23T04:46:11;5.82;;;2.50;;
78555;SDS011;67851;51.354;7.744;2023-03-23T04:48:37;5.82;;;1.88;;
78555;SDS011;67851;51.354;7.744;2023-03-23T04:51:15;6.78;;;2.65;;
78555;SDS011;67851;51.354;7.744;2023-03-23T04:53:43;3.08;;;2.10;;
78555;SDS011;67851;51.354;7.744;2023-03-23T04:56:09;3.03;;;2.65;;
78555;SDS011;67851;51.354;7.744;2023-03-23T04:58:41;4.03;;;3.00;;
78555;SDS011;67851;51.354;7.744;2023-03-23T05:01:31;5.65;;;3.00;;
78555;SDS011;67851;51.354;7.744;2023-03-23T05:04:17;7.10;;;2.60;;
78555;SDS011;67851;51.354;7.744;2023-03-23T05:06:52;4.90;;;3.00;;
78555;SDS011;67851;51.354;7.744;2023-03-23T05:09:23;3.00;;;2.20;;
78555;SDS011;67851;51.354;7.744;2023-03-23T05:11:49;4.40;;;2.70;;
78555;SDS011;67851;51.354;7.744;2023-03-23T05:14:15;4.35;;;2.25;;
78555;SDS011;67851;51.354;7.744;2023-03-23T05:16:44;3.95;;;2.90;;
78555;SDS011;67851;51.354;7.744;2023-03-23T05:19:14;3.17;;;2.50;;
78555;SDS011;67851;51.354;7.744;2023-03-23T05:21:40;3.97;;;2.80;;
78555;SDS011;67851;51.354;7.744;2023-03-23T05:24:06;4.07;;;2.58;;
78555;SDS011;67851;51.354;7.744;2023-03-23T05:26:32;4.25;;;2.78;;
78555;SDS011;67851;51.354;7.744;2023-03-23T05:31:40;5.05;;;3.13;;
78555;SDS011;67851;51.354;7.744;2023-03-23T05:34:07;3.47;;;2.65;;
78555;SDS011;67851;51.354;7.744;2023-03-23T05:36:45;3.55;;;2.90;;
78555;SDS011;67851;51.354;7.744;2023-03-23T05:39:25;3.55;;;2.97;;
78555;SDS011;67851;51.354;7.744;2023-03-23T05:42:12;4.22;;;3.20;;
78555;SDS011;67851;51.354;7.744;2023-03-23T05:44:53;5.30;;;3.47;;
78555;SDS011;67851;51.354;7.744;2023-03-23T05:47:19;5.28;;;3.13;;
78555;SDS011;67851;51.354;7.744;2023-03-23T05:49:51;5.25;;;3.13;;
78555;SDS011;67851;51.354;7.744;2023-03-23T05:52:20;3.90;;;3.10;;
78555;SDS011;67851;51.354;7.744;2023-03-23T05:54:46;4.25;;;3.60;;
78555;SDS011;67851;51.354;7.744;2023-03-23T05:57:13;4.60;;;3.22;;
78555;SDS011;67851;51.354;7.744;2023-03-23T05:59:45;4.00;;;2.78;;
78555;SDS011;67851;51.354;7.744;2023-03-23T06:02:17;4.15;;;2.30;;
78555;SDS011;67851;51.354;7.744;2023-03-23T06:04:43;3.22;;;2.80;;
78555;SDS011;67851;51.354;7.744;2023-03-23T06:07:24;3.95;;;2.83;;
78555;SDS011;67851;51.354;7.744;2023-03-23T06:09:58;6.00;;;3.20;;
78555;SDS011;67851;51.354;7.744;2023-03-23T06:12:23;4.97;;;2.65;;
78555;SDS011;67851;51.354;7.744;2023-03-23T06:15:05;3.70;;;2.77;;
78555;SDS011;67851;51.354;7.744;2023-03-23T06:17:50;4.18;;;2.55;;
78555;SDS011;67851;51.354;7.744;2023-03-23T06:22:51;2.90;;;2.28;;
78555;SDS011;67851;51.354;7.744;2023-03-23T06:25:27;4.15;;;2.78;;
78555;SDS011;67851;51.354;7.744;2023-03-23T06:27:53;3.75;;;2.83;;
78555;SDS011;67851;51.354;7.744;2023-03-23T06:30:19;5.03;;;2.88;;
78555;SDS011;67851;51.354;7.744;2023-03-23T06:32:44;4.55;;;3.05;;
78555;SDS011;67851;51.354;7.744;2023-03-23T06:35:13;6.28;;;2.90;;
78555;SDS011;67851;51.354;7.744;2023-03-23T06:37:54;3.03;;;2.72;;
78555;SDS011;67851;51.354;7.744;2023-03-23T06:40:36;5.22;;;3.28;;
78555;SDS011;67851;51.354;7.744;2023-03-23T06:43:03;5.30;;;2.38;;
78555;SDS011;67851;51.354;7.744;2023-03-23T06:45:32;4.90;;;3.20;;
78555;SDS011;67851;51.354;7.744;2023-03-23T06:48:24;7.13;;;3.25;;
78555;SDS011;67851;51.354;7.744;2023-03-23T06:50:51;5.25;;;2.80;;
78555;SDS011;67851;51.354;7.744;2023-03-23T06:53:19;4.20;;;2.63;;
78555;SDS011;67851;51.354;7.744;2023-03-23T06:55:47;5.93;;;2.83;;
78555;SDS011;67851;51.354;7.744;2023-03-23T06:58:13;4.18;;;3.00;;
78555;SDS011;67851;51.354;7.744;2023-03-23T07:00:39;5.68;;;3.00;;
78555;SDS011;67851;51.354;7.744;2023-03-23T07:03:06;3.88;;;2.33;;
78555;SDS011;67851;51.354;7.744;2023-03-23T07:05:36;4.00;;;2.50;;
78555;SDS011;67851;51.354;7.744;2023-03-23T07:08:03;5.47;;;2.90;;
78555;SDS011;67851;51.354;7.744;2023-03-23T07:10:33;4.28;;;2.38;;
78555;SDS011;67851;51.354;7.744;2023-03-23T07:13:00;3.88;;;2.20;;
78555;SDS011;67851;51.354;7.744;2023-03-23T07:15:31;4.05;;;2.47;;
78555;SDS011;67851;51.354;7.744;2023-03-23T07:17:57;4.47;;;2.53;;
78555;SDS011;67851;51.354;7.744;2023-03-23T07:20:34;2.58;;;1.33;;
78555;SDS011;67851;51.354;7.744;2023-03-23T07:23:00;2.28;;;1.67;;
78555;SDS011;67851;51.354;7.744;2023-03-23T07:25:47;4.68;;;2.47;;
78555;SDS011;67851;51.354;7.744;2023-03-23T07:28:19;5.15;;;2.38;;
78555;SDS011;67851;51.354;7.744;2023-03-23T07:30:45;4.53;;;2.38;;
78555;SDS011;67851;51.354;7.744;2023-03-23T07:33:11;8.10;;;2.10;;
78555;SDS011;67851;51.354;7.744;2023-03-23T07:35:37;6.75;;;2.00;;
78555;SDS011;67851;51.354;7.744;2023-03-23T07:38:07;4.72;;;2.40;;
78555;SDS011;67851;51.354;7.744;2023-03-23T07:40:35;3.78;;;2.00;;
78555;SDS011;67851;51.354;7.744;2023-03-23T07:43:06;4.60;;;2.10;;
78555;SDS011;67851;51.354;7.744;2023-03-23T07:45:52;5.93;;;2.53;;
78555;SDS011;67851;51.354;7.744;2023-03-23T07:48:23;3.55;;;1.88;;
78555;SDS011;67851;51.354;7.744;2023-03-23T07:50:51;6.18;;;2.20;;
78555;SDS011;67851;51.354;7.744;2023-03-23T07:53:16;5.43;;;2.30;;
78555;SDS011;67851;51.354;7.744;2023-03-23T07:55:48;6.28;;;2.17;;
78555;SDS011;67851;51.354;7.744;2023-03-23T07:58:37;7.57;;;2.35;;
78555;SDS011;67851;51.354;7.744;2023-03-23T08:01:02;5.97;;;2.67;;
78555;SDS011;67851;51.354;7.744;2023-03-23T08:03:30;3.88;;;2.03;;
78555;SDS011;67851;51.354;7.744;2023-03-23T08:06:26;6.45;;;1.90;;
78555;SDS011;67851;51.354;7.744;2023-03-23T08:09:15;4.85;;;2.08;;
78555;SDS011;67851;51.354;7.744;2023-03-23T08:12:09;3.83;;;1.92;;
78555;SDS011;67851;51.354;7.744;2023-03-23T08:14:56;4.47;;;2.28;;
78555;SDS011;67851;51.354;7.744;2023-03-23T08:17:38;4.30;;;1.90;;
78555;SDS011;67851;51.354;7.744;2023-03-23T08:20:27;6.72;;;2.00;;
78555;SDS011;67851;51.354;7.744;2023-03-23T08:23:15;2.92;;;1.77;;
78555;SDS011;67851;51.354;7.744;2023-03-23T08:26:04;4.97;;;2.03;;
78555;SDS011;67851;51.354;7.744;2023-03-23T08:28:51;2.75;;;1.40;;
78555;SDS011;67851;51.354;7.744;2023-03-23T08:31:36;3.47;;;1.60;;
78555;SDS011;67851;51.354;7.744;2023-03-23T08:34:20;4.32;;;1.50;;
78555;SDS011;67851;51.354;7.744;2023-03-23T08:37:01;3.92;;;1.67;;
78555;SDS011;67851;51.354;7.744;2023-03-23T08:39:49;4.95;;;2.13;;
78555;SDS011;67851;51.354;7.744;2023-03-23T08:42:51;7.10;;;1.83;;
78555;SDS011;67851;51.354;7.744;2023-03-23T08:45:49;6.28;;;2.28;;
78555;SDS011;67851;51.354;7.744;2023-03-23T08:48:53;4.55;;;1.70;;
78555;SDS011;67851;51.354;7.744;2023-03-23T08:51:19;4.95;;;1.70;;
78555;SDS011;67851;51.354;7.744;2023-03-23T08:54:07;5.07;;;1.95;;
78555;SDS011;67851;51.354;7.744;2023-03-23T08:56:50;3.17;;;1.55;;
78555;SDS011;67851;51.354;7.744;2023-03-23T08:59:35;3.67;;;1.35;;
78555;SDS011;67851;51.354;7.744;2023-03-23T09:02:21;3.80;;;1.67;;
78555;SDS011;67851;51.354;7.744;2023-03-23T09:04:53;5.55;;;1.65;;
78555;SDS011;67851;51.354;7.744;2023-03-23T09:07:41;3.28;;;1.63;;
78555;SDS011;67851;51.354;7.744;2023-03-23T09:10:09;4.88;;;1.85;;
78555;SDS011;67851;51.354;7.744;2023-03-23T09:12:35;6.45;;;1.80;;
78555;SDS011;67851;51.354;7.744;2023-03-23T09:15:02;4.47;;;1.98;;
78555;SDS011;67851;51.354;7.744;2023-03-23T09:17:35;5.68;;;1.40;;
78555;SDS011;67851;51.354;7.744;2023-03-23T09:20:02;8.05;;;2.03;;
78555;SDS011;67851;51.354;7.744;2023-03-23T09:22:32;9.85;;;2.47;;
78555;SDS011;67851;51.354;7.744;2023-03-23T09:24:58;4.57;;;1.70;;
78555;SDS011;67851;51.354;7.744;2023-03-23T09:27:23;3.42;;;1.50;;
78555;SDS011;67851;51.354;7.744;2023-03-23T09:29:49;3.65;;;1.38;;
78555;SDS011;67851;51.354;7.744;2023-03-23T09:32:15;4.53;;;1.50;;
78555;SDS011;67851;51.354;7.744;2023-03-23T09:34:40;4.43;;;1.45;;
78555;SDS011;67851;51.354;7.744;2023-03-23T09:37:06;4.97;;;1.50;;
78555;SDS011;67851;51.354;7.744;2023-03-23T09:39:32;5.78;;;2.03;;
78555;SDS011;67851;51.354;7.744;2023-03-23T09:49:42;4.53;;;1.73;;
78555;SDS011;67851;51.354;7.744;2023-03-23T09:52:15;6.13;;;2.13;;
78555;SDS011;67851;51.354;7.744;2023-03-23T09:54:44;5.00;;;1.92;;
78555;SDS011;67851;51.354;7.744;2023-03-23T10:05:31;9.32;;;2.42;;
78555;SDS011;67851;51.354;7.744;2023-03-23T10:07:58;8.25;;;1.88;;
78555;SDS011;67851;51.354;7.744;2023-03-23T10:10:37;4.72;;;1.33;;
78555;SDS011;67851;51.354;7.744;2023-03-23T10:13:26;5.88;;;1.70;;
78555;SDS011;67851;51.354;7.744;2023-03-23T10:16:07;5.47;;;2.00;;
78555;SDS011;67851;51.354;7.744;2023-03-23T10:21:30;5.38;;;1.85;;
78555;SDS011;67851;51.354;7.744;2023-03-23T10:24:04;5.30;;;1.48;;
78555;SDS011;67851;51.354;7.744;2023-03-23T10:26:40;6.22;;;1.90;;
78555;SDS011;67851;51.354;7.744;2023-03-23T10:29:31;4.03;;;1.67;;
78555;SDS011;67851;51.354;7.744;2023-03-23T10:32:13;7.75;;;1.83;;
78555;SDS011;67851;51.354;7.744;2023-03-23T10:34:42;7.40;;;1.73;;
78555;SDS011;67851;51.354;7.744;2023-03-23T10:37:14;10.65;;;1.83;;
78555;SDS011;67851;51.354;7.744;2023-03-23T10:39:49;5.68;;;1.90;;
78555;SDS011;67851;51.354;7.744;2023-03-23T10:42:25;4.82;;;1.70;;
78555;SDS011;67851;51.354;7.744;2023-03-23T10:44:55;6.32;;;1.42;;
78555;SDS011;67851;51.354;7.744;2023-03-23T10:47:22;4.78;;;1.60;;
78555;SDS011;67851;51.354;7.744;2023-03-23T10:49:52;3.67;;;1.60;;
78555;SDS011;67851;51.354;7.744;2023-03-23T10:52:25;7.97;;;2.65;;
78555;SDS011;67851;51.354;7.744;2023-03-23T10:57:31;6.03;;;1.52;;
78555;SDS011;67851;51.354;7.744;2023-03-23T11:00:16;5.13;;;1.70;;
78555;SDS011;67851;51.354;7.744;2023-03-23T11:02:47;7.13;;;2.03;;
78555;SDS011;67851;51.354;7.744;2023-03-23T11:05:25;3.90;;;1.30;;
78555;SDS011;67851;51.354;7.744;2023-03-23T11:07:57;5.82;;;1.58;;
78555;SDS011;67851;51.354;7.744;2023-03-23T11:10:26;5.40;;;1.52;;
78555;SDS011;67851;51.354;7.744;2023-03-23T11:12:56;5.38;;;1.50;;
78555;SDS011;67851;51.354;7.744;2023-03-23T11:15:34;4.50;;;1.40;;
78555;SDS011;67851;51.354;7.744;2023-03-23T11:18:11;4.45;;;1.58;;
78555;SDS011;67851;51.354;7.744;2023-03-23T11:20:46;4.60;;;1.58;;
78555;SDS011;67851;51.354;7.744;2023-03-23T11:25:50;7.20;;;1.85;;
78555;SDS011;67851;51.354;7.744;2023-03-23T11:28:42;10.13;;;2.35;;
78555;SDS011;67851;51.354;7.744;2023-03-23T11:31:10;4.28;;;1.73;;
78555;SDS011;67851;51.354;7.744;2023-03-23T11:33:37;5.35;;;1.77;;
78555;SDS011;67851;51.354;7.744;2023-03-23T11:36:16;6.82;;;1.80;;
78555;SDS011;67851;51.354;7.744;2023-03-23T11:38:42;6.38;;;2.00;;
78555;SDS011;67851;51.354;7.744;2023-03-23T11:41:12;7.82;;;2.13;;
78555;SDS011;67851;51.354;7.744;2023-03-23T11:43:44;8.75;;;2.42;;
78555;SDS011;67851;51.354;7.744;2023-03-23T11:46:15;7.00;;;2.20;;
78555;SDS011;67851;51.354;7.744;2023-03-23T11:49:00;14.80;;;2.67;;
78555;SDS011;67851;51.354;7.744;2023-03-23T11:51:37;9.80;;;2.70;;
78555;SDS011;67851;51.354;7.744;2023-03-23T11:56:42;5.80;;;2.10;;
78555;SDS011;67851;51.354;7.744;2023-03-23T11:59:12;6.22;;;2.60;;
78555;SDS011;67851;51.354;7.744;2023-03-23T12:01:48;9.18;;;2.90;;
78555;SDS011;67851;51.354;7.744;2023-03-23T12:13:03;7.60;;;2.80;;
78555;SDS011;67851;51.354;7.744;2023-03-23T12:15:37;8.38;;;2.53;;
78555;SDS011;67851;51.354;7.744;2023-03-23T12:18:22;6.78;;;2.30;;
78555;SDS011;67851;51.354;7.744;2023-03-23T12:48:33;4.90;;;2.13;;
78555;SDS011;67851;51.354;7.744;2023-03-23T12:56:23;6.20;;;2.47;;
78555;SDS011;67851;51.354;7.744;2023-03-23T12:59:16;3.60;;;1.92;;
78555;SDS011;67851;51.354;7.744;2023-03-23T13:02:03;6.55;;;2.15;;
78555;SDS011;67851;51.354;7.744;2023-03-23T13:04:35;4.20;;;2.22;;
78555;SDS011;67851;51.354;7.744;2023-03-23T13:07:08;3.67;;;2.08;;
78555;SDS011;67851;51.354;7.744;2023-03-23T13:09:55;5.18;;;2.72;;
78555;SDS011;67851;51.354;7.744;2023-03-23T13:12:29;5.28;;;3.42;;
78555;SDS011;67851;51.354;7.744;2023-03-23T13:14:59;4.10;;;2.50;;
78555;SDS011;67851;51.354;7.744;2023-03-23T13:28:01;6.30;;;3.30;;
78555;SDS011;67851;51.354;7.744;2023-03-23T13:30:28;4.93;;;3.30;;
78555;SDS011;67851;51.354;7.744;2023-03-23T13:33:04;9.30;;;3.47;;
78555;SDS011;67851;51.354;7.744;2023-03-23T13:35:36;6.78;;;3.80;;
78555;SDS011;67851;51.354;7.744;2023-03-23T13:38:18;7.35;;;3.60;;
78555;SDS011;67851;51.354;7.744;2023-03-23T13:40:46;4.90;;;3.33;;
78555;SDS011;67851;51.354;7.744;2023-03-23T13:43:12;7.57;;;3.15;;
78555;SDS011;67851;51.354;7.744;2023-03-23T13:45:45;5.88;;;3.35;;
78555;SDS011;67851;51.354;7.744;2023-03-23T13:56:25;5.32;;;2.92;;
78555;SDS011;67851;51.354;7.744;2023-03-23T13:59:14;6.57;;;2.72;;
78555;SDS011;67851;51.354;7.744;2023-03-23T14:01:41;4.63;;;2.83;;
78555;SDS011;67851;51.354;7.744;2023-03-23T14:04:13;5.05;;;2.90;;
78555;SDS011;67851;51.354;7.744;2023-03-23T14:06:40;4.60;;;3.00;;
78555;SDS011;67851;51.354;7.744;2023-03-23T14:09:37;4.95;;;2.72;;
78555;SDS011;67851;51.354;7.744;2023-03-23T14:12:04;5.72;;;2.90;;
78555;SDS011;67851;51.354;7.744;2023-03-23T14:14:39;6.60;;;3.55;;
78555;SDS011;67851;51.354;7.744;2023-03-23T14:17:16;6.82;;;3.53;;
78555;SDS011;67851;51.354;7.744;2023-03-23T14:19:48;5.10;;;3.88;;
78555;SDS011;67851;51.354;7.744;2023-03-23T14:22:23;5.35;;;3.03;;
78555;SDS011;67851;51.354;7.744;2023-03-23T14:25:17;5.88;;;3.00;;
78555;SDS011;67851;51.354;7.744;2023-03-23T14:27:44;7.22;;;3.58;;
78555;SDS011;67851;51.354;7.744;2023-03-23T14:30:14;4.28;;;2.60;;
78555;SDS011;67851;51.354;7.744;2023-03-23T14:32:46;6.60;;;2.97;;
78555;SDS011;67851;51.354;7.744;2023-03-23T14:35:26;6.13;;;3.20;;
78555;SDS011;67851;51.354;7.744;2023-03-23T14:37:55;5.95;;;3.22;;
78555;SDS011;67851;51.354;7.744;2023-03-23T14:40:21;9.88;;;3.97;;
78555;SDS011;67851;51.354;7.744;2023-03-23T14:42:47;7.95;;;3.13;;
78555;SDS011;67851;51.354;7.744;2023-03-23T14:45:16;8.15;;;3.03;;
78555;SDS011;67851;51.354;7.744;2023-03-23T14:47:47;7.18;;;3.05;;
78555;SDS011;67851;51.354;7.744;2023-03-23T14:53:07;5.45;;;2.80;;
78555;SDS011;67851;51.354;7.744;2023-03-23T14:55:41;7.30;;;2.92;;
78555;SDS011;67851;51.354;7.744;2023-03-23T14:58:09;5.75;;;2.70;;
78555;SDS011;67851;51.354;7.744;2023-03-23T15:00:40;4.47;;;2.22;;
78555;SDS011;67851;51.354;7.744;2023-03-23T15:03:10;3.50;;;2.10;;
78555;SDS011;67851;51.354;7.744;2023-03-23T15:05:46;8.02;;;3.00;;
78555;SDS011;67851;51.354;7.744;2023-03-23T15:08:18;6.53;;;3.08;;
78555;SDS011;67851;51.354;7.744;2023-03-23T15:10:51;7.85;;;2.70;;
78555;SDS011;67851;51.354;7.744;2023-03-23T15:13:27;3.90;;;2.03;;
78555;SDS011;67851;51.354;7.744;2023-03-23T15:16:00;4.20;;;1.90;;
78555;SDS011;67851;51.354;7.744;2023-03-23T15:18:31;3.28;;;1.40;;
78555;SDS011;67851;51.354;7.744;2023-03-23T15:21:07;3.53;;;1.75;;
78555;SDS011;67851;51.354;7.744;2023-03-23T15:23:43;5.35;;;1.75;;
78555;SDS011;67851;51.354;7.744;2023-03-23T15:26:23;3.17;;;1.73;;
78555;SDS011;67851;51.354;7.744;2023-03-23T15:29:00;4.32;;;1.40;;
78555;SDS011;67851;51.354;7.744;2023-03-23T15:31:30;5.97;;;1.75;;
78555;SDS011;67851;51.354;7.744;2023-03-23T15:33:57;4.85;;;2.00;;
78555;SDS011;67851;51.354;7.744;2023-03-23T15:36:25;5.55;;;1.92;;
78555;SDS011;67851;51.354;7.744;2023-03-23T15:38:51;4.60;;;1.63;;
78555;SDS011;67851;51.354;7.744;2023-03-23T15:41:22;6.32;;;1.90;;
78555;SDS011;67851;51.354;7.744;2023-03-23T15:43:53;4.50;;;2.00;;
78555;SDS011;67851;51.354;7.744;2023-03-23T15:46:23;5.85;;;2.10;;
78555;SDS011;67851;51.354;7.744;2023-03-23T15:48:53;7.57;;;2.28;;
78555;SDS011;67851;51.354;7.744;2023-03-23T15:51:32;6.82;;;1.77;;
78555;SDS011;67851;51.354;7.744;2023-03-23T15:53:58;7.05;;;2.15;;
78555;SDS011;67851;51.354;7.744;2023-03-23T15:56:25;7.05;;;2.22;;
78555;SDS011;67851;51.354;7.744;2023-03-23T15:58:51;8.65;;;2.50;;
78555;SDS011;67851;51.354;7.744;2023-03-23T16:01:18;6.90;;;2.58;;
78555;SDS011;67851;51.354;7.744;2023-03-23T16:06:16;8.32;;;2.97;;
78555;SDS011;67851;51.354;7.744;2023-03-23T16:08:44;8.68;;;3.55;;
78555;SDS011;67851;51.354;7.744;2023-03-23T16:11:14;7.90;;;3.50;;
78555;SDS011;67851;51.354;7.744;2023-03-23T16:13:41;4.97;;;2.83;;
78555;SDS011;67851;51.354;7.744;2023-03-23T16:16:27;6.13;;;2.80;;
78555;SDS011;67851;51.354;7.744;2023-03-23T16:18:57;8.95;;;3.60;;
78555;SDS011;67851;51.354;7.744;2023-03-23T16:21:23;9.10;;;3.63;;
78555;SDS011;67851;51.354;7.744;2023-03-23T16:23:49;8.93;;;4.13;;
78555;SDS011;67851;51.354;7.744;2023-03-23T16:26:14;9.23;;;3.83;;
78555;SDS011;67851;51.354;7.744;2023-03-23T16:28:41;7.55;;;3.17;;
78555;SDS011;67851;51.354;7.744;2023-03-23T16:31:07;10.93;;;4.22;;
78555;SDS011;67851;51.354;7.744;2023-03-23T16:33:33;8.45;;;4.00;;
78555;SDS011;67851;51.354;7.744;2023-03-23T16:35:58;7.22;;;3.47;;
78555;SDS011;67851;51.354;7.744;2023-03-23T16:38:24;13.40;;;4.53;;
78555;SDS011;67851;51.354;7.744;2023-03-23T16:40:50;7.53;;;3.75;;
78555;SDS011;67851;51.354;7.744;2023-03-23T16:43:15;6.78;;;3.28;;
78555;SDS011;67851;51.354;7.744;2023-03-23T16:45:42;10.93;;;4.50;;
78555;SDS011;67851;51.354;7.744;2023-03-23T16:48:09;10.10;;;4.60;;
78555;SDS011;67851;51.354;7.744;2023-03-23T16:50:35;10.88;;;5.25;;
78555;SDS011;67851;51.354;7.744;2023-03-23T16:53:02;10.57;;;4.97;;
78555;SDS011;67851;51.354;7.744;2023-03-23T16:55:28;9.55;;;3.90;;
78555;SDS011;67851;51.354;7.744;2023-03-23T16:57:55;10.55;;;4.53;;
78555;SDS011;67851;51.354;7.744;2023-03-23T17:00:21;13.80;;;5.68;;
78555;SDS011;67851;51.354;7.744;2023-03-23T17:02:50;10.88;;;6.10;;
78555;SDS011;67851;51.354;7.744;2023-03-23T17:05:19;12.45;;;6.47;;
78555;SDS011;67851;51.354;7.744;2023-03-23T17:07:47;18.35;;;8.07;;
78555;SDS011;67851;51.354;7.744;2023-03-23T17:10:13;17.23;;;8.40;;
78555;SDS011;67851;51.354;7.744;2023-03-23T17:12:40;19.20;;;7.75;;